BTK6331 WADD-WATO
Flight info
| Callsign | BTK6331 |
|---|---|
| Flight time | 0h 58m |
| Altitude | 35000 |
| Route | PEBGU W42 NMA W69 HUMAI |
| Aircraft | A320/M-SDE3FGHIRWY/LB1 |
Departure
| Time | 2026-05-04 12:14 |
|---|---|
| Airport | Denpasar I Gusti Ngurah Rai International Airport (WADD) |
Arrival
| Time | 2026-05-04 13:13 |
|---|---|
| Airport | Komodo Airport (WATO) |
| Time | Latitude | Longitude | Altitude | Speed | Heading |
|---|---|---|---|---|---|
| 2026-05-04 11:49 | -8.74560 | 115.16406 | 33 ft | 0 kts | 358° |
| 2026-05-04 12:04 | -8.74580 | 115.16407 | 33 ft | 4 kts | 358° |
| 2026-05-04 12:04 | -8.74600 | 115.16407 | 30 ft | 4 kts | 358° |
| 2026-05-04 12:04 | -8.74626 | 115.16408 | 32 ft | 4 kts | 358° |
| 2026-05-04 12:04 | -8.74651 | 115.16409 | 30 ft | 4 kts | 357° |
| 2026-05-04 12:05 | -8.74675 | 115.16415 | 31 ft | 4 kts | 322° |
| 2026-05-04 12:05 | -8.74689 | 115.16434 | 31 ft | 4 kts | 279° |
| 2026-05-04 12:05 | -8.74690 | 115.16459 | 32 ft | 2 kts | 268° |
| 2026-05-04 12:05 | -8.74690 | 115.16461 | 32 ft | 0 kts | 268° |
| 2026-05-04 12:08 | -8.74691 | 115.16452 | 32 ft | 5 kts | 268° |
| 2026-05-04 12:08 | -8.74692 | 115.16405 | 32 ft | 8 kts | 268° |
| 2026-05-04 12:09 | -8.74694 | 115.16343 | 33 ft | 10 kts | 268° |
| 2026-05-04 12:09 | -8.74697 | 115.16268 | 33 ft | 12 kts | 268° |
| 2026-05-04 12:09 | -8.74698 | 115.16238 | 33 ft | 12 kts | 268° |
| 2026-05-04 12:09 | -8.74702 | 115.16172 | 33 ft | 14 kts | 267° |
| 2026-05-04 12:10 | -8.74706 | 115.16070 | 33 ft | 16 kts | 268° |
| 2026-05-04 12:10 | -8.74711 | 115.15953 | 33 ft | 18 kts | 267° |
| 2026-05-04 12:10 | -8.74716 | 115.15821 | 33 ft | 20 kts | 268° |
| 2026-05-04 12:10 | -8.74722 | 115.15675 | 33 ft | 20 kts | 268° |
| 2026-05-04 12:11 | -8.74729 | 115.15526 | 32 ft | 22 kts | 267° |
| 2026-05-04 12:11 | -8.74751 | 115.15407 | 31 ft | 16 kts | 230° |
| 2026-05-04 12:11 | -8.74834 | 115.15392 | 29 ft | 11 kts | 178° |
| 2026-05-04 12:11 | -8.74898 | 115.15408 | 29 ft | 6 kts | 98° |
| 2026-05-04 12:12 | -8.74897 | 115.15434 | 29 ft | 1 kts | 88° |
| 2026-05-04 12:12 | -8.74896 | 115.15451 | 29 ft | 6 kts | 88° |
| 2026-05-04 12:12 | -8.74886 | 115.15740 | 28 ft | 76 kts | 88° |
| 2026-05-04 12:12 | -8.74854 | 115.16479 | 29 ft | 131 kts | 88° |
| 2026-05-04 12:13 | -8.74816 | 115.17539 | 162 ft | 160 kts | 90° |
| 2026-05-04 12:14 | -8.74429 | 115.26953 | 3520 ft | 252 kts | 87° |
| 2026-05-04 12:15 | -8.74258 | 115.28737 | 4359 ft | 257 kts | 84° |
| 2026-05-04 12:15 | -8.74034 | 115.30545 | 5205 ft | 261 kts | 83° |
| 2026-05-04 12:15 | -8.73790 | 115.32379 | 6023 ft | 266 kts | 83° |
| 2026-05-04 12:15 | -8.73542 | 115.34243 | 6785 ft | 270 kts | 83° |
| 2026-05-04 12:16 | -8.73296 | 115.36135 | 7545 ft | 273 kts | 83° |
| 2026-05-04 12:16 | -8.73055 | 115.38025 | 8293 ft | 277 kts | 83° |
| 2026-05-04 12:16 | -8.72810 | 115.39969 | 9038 ft | 280 kts | 83° |
| 2026-05-04 12:16 | -8.72564 | 115.41935 | 9762 ft | 284 kts | 83° |
| 2026-05-04 12:17 | -8.72315 | 115.43940 | 10243 ft | 296 kts | 83° |
| 2026-05-04 12:17 | -8.72048 | 115.46083 | 10390 ft | 318 kts | 83° |
| 2026-05-04 12:17 | -8.71768 | 115.48346 | 10789 ft | 328 kts | 84° |
| 2026-05-04 12:17 | -8.71482 | 115.50653 | 11345 ft | 333 kts | 84° |
| 2026-05-04 12:18 | -8.71194 | 115.52995 | 11935 ft | 337 kts | 84° |
| 2026-05-04 12:18 | -8.70899 | 115.55360 | 12526 ft | 341 kts | 84° |
| 2026-05-04 12:18 | -8.70598 | 115.57756 | 13106 ft | 346 kts | 84° |
| 2026-05-04 12:18 | -8.70294 | 115.60180 | 13686 ft | 350 kts | 85° |
| 2026-05-04 12:19 | -8.69989 | 115.62633 | 14205 ft | 354 kts | 84° |
| 2026-05-04 12:19 | -8.69681 | 115.65110 | 14724 ft | 357 kts | 84° |
| 2026-05-04 12:19 | -8.69371 | 115.67611 | 15230 ft | 360 kts | 85° |
| 2026-05-04 12:19 | -8.69057 | 115.70134 | 15746 ft | 364 kts | 84° |
| 2026-05-04 12:20 | -8.68739 | 115.72681 | 16259 ft | 367 kts | 84° |
| 2026-05-04 12:20 | -8.68414 | 115.75252 | 16752 ft | 371 kts | 84° |
| 2026-05-04 12:20 | -8.68088 | 115.77850 | 17242 ft | 375 kts | 84° |
| 2026-05-04 12:20 | -8.67761 | 115.80473 | 17732 ft | 378 kts | 84° |
| 2026-05-04 12:21 | -8.67434 | 115.83121 | 18222 ft | 382 kts | 84° |
| 2026-05-04 12:21 | -8.67100 | 115.85795 | 18641 ft | 385 kts | 84° |
| 2026-05-04 12:21 | -8.66763 | 115.88492 | 19080 ft | 388 kts | 84° |
| 2026-05-04 12:21 | -8.66424 | 115.91209 | 19532 ft | 391 kts | 83° |
| 2026-05-04 12:22 | -8.66079 | 115.93944 | 19975 ft | 394 kts | 83° |
| 2026-05-04 12:22 | -8.65731 | 115.96701 | 20425 ft | 397 kts | 83° |
| 2026-05-04 12:22 | -8.65381 | 115.99474 | 20881 ft | 399 kts | 83° |
| 2026-05-04 12:22 | -8.65028 | 116.02269 | 21329 ft | 402 kts | 83° |
| 2026-05-04 12:23 | -8.64679 | 116.05046 | 21768 ft | 405 kts | 83° |
| 2026-05-04 12:23 | -8.64321 | 116.07878 | 22207 ft | 408 kts | 83° |
| 2026-05-04 12:23 | -8.63963 | 116.10729 | 22640 ft | 411 kts | 83° |
| 2026-05-04 12:23 | -8.63598 | 116.13647 | 23064 ft | 414 kts | 83° |
| 2026-05-04 12:24 | -8.63239 | 116.16499 | 23471 ft | 417 kts | 83° |
| 2026-05-04 12:24 | -8.62874 | 116.19411 | 23808 ft | 419 kts | 83° |
| 2026-05-04 12:24 | -8.62508 | 116.22344 | 24135 ft | 422 kts | 83° |
| 2026-05-04 12:24 | -8.62139 | 116.25295 | 24462 ft | 424 kts | 83° |
| 2026-05-04 12:25 | -8.61766 | 116.28259 | 24789 ft | 427 kts | 83° |
| 2026-05-04 12:25 | -8.61388 | 116.31239 | 25112 ft | 429 kts | 83° |
| 2026-05-04 12:25 | -8.61004 | 116.34236 | 25430 ft | 431 kts | 83° |
| 2026-05-04 12:25 | -8.60619 | 116.37251 | 25750 ft | 433 kts | 83° |
| 2026-05-04 12:26 | -8.60235 | 116.40278 | 26066 ft | 436 kts | 83° |
| 2026-05-04 12:26 | -8.59852 | 116.43323 | 26369 ft | 438 kts | 83° |
| 2026-05-04 12:26 | -8.59467 | 116.46382 | 26678 ft | 440 kts | 83° |
| 2026-05-04 12:26 | -8.59078 | 116.49455 | 26976 ft | 442 kts | 83° |
| 2026-05-04 12:27 | -8.58683 | 116.52544 | 27271 ft | 444 kts | 83° |
| 2026-05-04 12:27 | -8.58287 | 116.55645 | 27565 ft | 446 kts | 83° |
| 2026-05-04 12:27 | -8.57889 | 116.58764 | 27854 ft | 448 kts | 83° |
| 2026-05-04 12:27 | -8.57489 | 116.61894 | 28135 ft | 450 kts | 83° |
| 2026-05-04 12:28 | -8.57088 | 116.65037 | 28441 ft | 452 kts | 83° |
| 2026-05-04 12:28 | -8.56688 | 116.68193 | 28738 ft | 454 kts | 83° |
| 2026-05-04 12:28 | -8.56287 | 116.71365 | 29040 ft | 456 kts | 83° |
| 2026-05-04 12:28 | -8.55882 | 116.74554 | 29346 ft | 458 kts | 83° |
| 2026-05-04 12:29 | -8.55474 | 116.77754 | 29634 ft | 461 kts | 83° |
| 2026-05-04 12:29 | -8.55063 | 116.80973 | 29917 ft | 463 kts | 83° |
| 2026-05-04 12:29 | -8.54648 | 116.84206 | 30162 ft | 465 kts | 83° |
| 2026-05-04 12:29 | -8.54238 | 116.87412 | 30403 ft | 467 kts | 83° |
| 2026-05-04 12:30 | -8.53821 | 116.90673 | 30642 ft | 469 kts | 83° |
| 2026-05-04 12:30 | -8.53400 | 116.93951 | 30851 ft | 472 kts | 83° |
| 2026-05-04 12:30 | -8.52564 | 117.00446 | 30939 ft | 458 kts | 83° |
| 2026-05-04 12:31 | -8.51757 | 117.06790 | 30943 ft | 454 kts | 83° |
| 2026-05-04 12:31 | -8.50951 | 117.13108 | 30944 ft | 454 kts | 83° |
| 2026-05-04 12:32 | -8.49722 | 117.22583 | 30949 ft | 453 kts | 83° |
| 2026-05-04 12:33 | -8.48909 | 117.28887 | 30951 ft | 453 kts | 83° |
| 2026-05-04 12:33 | -8.48095 | 117.35193 | 30952 ft | 453 kts | 83° |
| 2026-05-04 12:34 | -8.47475 | 117.41514 | 30955 ft | 452 kts | 91° |
| 2026-05-04 12:34 | -8.47771 | 117.47852 | 30955 ft | 452 kts | 94° |
| 2026-05-04 12:35 | -8.48085 | 117.54188 | 30955 ft | 452 kts | 93° |
| 2026-05-04 12:35 | -8.48389 | 117.60531 | 30958 ft | 452 kts | 93° |
| 2026-05-04 12:36 | -8.48687 | 117.66873 | 30960 ft | 452 kts | 93° |
| 2026-05-04 12:36 | -8.48989 | 117.73214 | 30962 ft | 452 kts | 93° |
| 2026-05-04 12:37 | -8.49288 | 117.79556 | 30963 ft | 452 kts | 93° |
| 2026-05-04 12:37 | -8.49586 | 117.85896 | 30962 ft | 452 kts | 93° |
| 2026-05-04 12:38 | -8.49884 | 117.92236 | 30964 ft | 452 kts | 93° |
| 2026-05-04 12:38 | -8.50181 | 117.98530 | 30960 ft | 452 kts | 93° |
| 2026-05-04 12:39 | -8.50474 | 118.04872 | 30963 ft | 452 kts | 93° |
| 2026-05-04 12:39 | -8.50765 | 118.11210 | 30961 ft | 452 kts | 93° |
| 2026-05-04 12:40 | -8.51061 | 118.17552 | 30963 ft | 452 kts | 93° |
| 2026-05-04 12:40 | -8.51355 | 118.23889 | 30966 ft | 452 kts | 93° |
| 2026-05-04 12:41 | -8.51645 | 118.30233 | 30972 ft | 452 kts | 93° |
| 2026-05-04 12:41 | -8.51934 | 118.36566 | 30972 ft | 452 kts | 93° |
| 2026-05-04 12:42 | -8.52221 | 118.42901 | 30971 ft | 451 kts | 93° |
| 2026-05-04 12:42 | -8.52510 | 118.49231 | 30909 ft | 451 kts | 93° |
| 2026-05-04 12:42 | -8.52654 | 118.52395 | 30424 ft | 450 kts | 92° |
| 2026-05-04 12:43 | -8.52799 | 118.55548 | 29820 ft | 449 kts | 92° |
| 2026-05-04 12:43 | -8.52942 | 118.58687 | 29216 ft | 446 kts | 92° |
| 2026-05-04 12:43 | -8.53085 | 118.61806 | 28659 ft | 443 kts | 92° |
| 2026-05-04 12:43 | -8.53224 | 118.64901 | 28096 ft | 440 kts | 92° |
| 2026-05-04 12:44 | -8.53312 | 118.67984 | 27532 ft | 437 kts | 88° |
| 2026-05-04 12:44 | -8.52979 | 118.71024 | 26980 ft | 435 kts | 78° |
| 2026-05-04 12:44 | -8.52303 | 118.73992 | 26430 ft | 432 kts | 77° |
| 2026-05-04 12:44 | -8.51617 | 118.76941 | 25900 ft | 430 kts | 77° |
| 2026-05-04 12:45 | -8.50935 | 118.79875 | 25366 ft | 428 kts | 77° |
| 2026-05-04 12:45 | -8.50256 | 118.82797 | 24860 ft | 426 kts | 77° |
| 2026-05-04 12:45 | -8.49591 | 118.85669 | 24359 ft | 425 kts | 77° |
| 2026-05-04 12:45 | -8.48918 | 118.88566 | 23876 ft | 423 kts | 77° |
| 2026-05-04 12:46 | -8.48236 | 118.91494 | 23357 ft | 422 kts | 77° |
| 2026-05-04 12:46 | -8.47567 | 118.94366 | 22852 ft | 419 kts | 77° |
| 2026-05-04 12:46 | -8.46913 | 118.97179 | 22391 ft | 415 kts | 77° |
| 2026-05-04 12:46 | -8.46258 | 119.00009 | 21907 ft | 413 kts | 77° |
| 2026-05-04 12:47 | -8.45605 | 119.02828 | 21425 ft | 411 kts | 77° |
| 2026-05-04 12:47 | -8.44954 | 119.05633 | 20921 ft | 410 kts | 77° |
| 2026-05-04 12:47 | -8.44304 | 119.08429 | 20424 ft | 408 kts | 77° |
| 2026-05-04 12:47 | -8.43656 | 119.11214 | 19904 ft | 407 kts | 78° |
| 2026-05-04 12:48 | -8.43010 | 119.13995 | 19390 ft | 406 kts | 77° |
| 2026-05-04 12:48 | -8.42366 | 119.16772 | 18852 ft | 406 kts | 78° |
| 2026-05-04 12:48 | -8.41723 | 119.19542 | 18363 ft | 404 kts | 78° |
| 2026-05-04 12:48 | -8.41084 | 119.22289 | 17775 ft | 402 kts | 78° |
| 2026-05-04 12:49 | -8.40449 | 119.25008 | 17403 ft | 395 kts | 78° |
| 2026-05-04 12:49 | -8.39823 | 119.27675 | 16639 ft | 385 kts | 78° |
| 2026-05-04 12:49 | -8.39220 | 119.30247 | 16138 ft | 368 kts | 78° |
| 2026-05-04 12:49 | -8.38644 | 119.32709 | 15658 ft | 353 kts | 78° |
| 2026-05-04 12:50 | -8.38271 | 119.34306 | 15343 ft | 352 kts | 78° |
| 2026-05-04 12:50 | -8.37712 | 119.36711 | 14859 ft | 352 kts | 78° |
| 2026-05-04 12:50 | -8.37125 | 119.39110 | 14375 ft | 352 kts | 75° |
| 2026-05-04 12:50 | -8.36236 | 119.41417 | 13888 ft | 353 kts | 69° |
| 2026-05-04 12:51 | -8.35282 | 119.43700 | 13366 ft | 353 kts | 69° |
| 2026-05-04 12:51 | -8.34332 | 119.45974 | 12865 ft | 351 kts | 69° |
| 2026-05-04 12:51 | -8.33387 | 119.48231 | 12426 ft | 347 kts | 69° |
| 2026-05-04 12:51 | -8.32450 | 119.50464 | 11960 ft | 345 kts | 69° |
| 2026-05-04 12:52 | -8.31518 | 119.52686 | 11476 ft | 342 kts | 69° |
| 2026-05-04 12:52 | -8.30603 | 119.54871 | 11007 ft | 334 kts | 69° |
| 2026-05-04 12:52 | -8.29706 | 119.57016 | 10549 ft | 331 kts | 69° |
| 2026-05-04 12:52 | -8.28823 | 119.59139 | 10323 ft | 322 kts | 69° |
| 2026-05-04 12:53 | -8.27970 | 119.61189 | 10212 ft | 311 kts | 69° |
| 2026-05-04 12:53 | -8.27145 | 119.63168 | 10072 ft | 302 kts | 69° |
| 2026-05-04 12:53 | -8.26338 | 119.65101 | 9865 ft | 296 kts | 69° |
| 2026-05-04 12:53 | -8.25537 | 119.67015 | 9491 ft | 296 kts | 69° |
| 2026-05-04 12:54 | -8.24736 | 119.68930 | 9114 ft | 296 kts | 69° |
| 2026-05-04 12:54 | -8.23943 | 119.70830 | 8744 ft | 294 kts | 69° |
| 2026-05-04 12:54 | -8.23157 | 119.72710 | 8327 ft | 287 kts | 68° |
| 2026-05-04 12:54 | -8.22385 | 119.74554 | 7940 ft | 284 kts | 68° |
| 2026-05-04 12:55 | -8.21619 | 119.76381 | 7560 ft | 281 kts | 68° |
| 2026-05-04 12:55 | -8.20871 | 119.78168 | 7191 ft | 271 kts | 68° |
| 2026-05-04 12:55 | -8.20342 | 119.79942 | 6838 ft | 259 kts | 83° |
| 2026-05-04 12:55 | -8.20349 | 119.81723 | 6478 ft | 250 kts | 100° |
| 2026-05-04 12:56 | -8.20777 | 119.83394 | 6108 ft | 242 kts | 106° |
| 2026-05-04 12:56 | -8.21232 | 119.85002 | 5753 ft | 234 kts | 105° |
| 2026-05-04 12:56 | -8.21785 | 119.86515 | 5416 ft | 230 kts | 123° |
| 2026-05-04 12:56 | -8.22970 | 119.87572 | 5082 ft | 231 kts | 155° |
| 2026-05-04 12:57 | -8.24554 | 119.87808 | 4746 ft | 235 kts | 188° |
| 2026-05-04 12:57 | -8.26137 | 119.87378 | 4406 ft | 237 kts | 194° |
| 2026-05-04 12:57 | -8.27720 | 119.86921 | 4048 ft | 235 kts | 194° |
| 2026-05-04 12:57 | -8.29273 | 119.86518 | 3707 ft | 226 kts | 186° |
| 2026-05-04 12:58 | -8.30804 | 119.86528 | 3415 ft | 215 kts | 170° |
| 2026-05-04 12:58 | -8.32272 | 119.86735 | 3139 ft | 212 kts | 171° |
| 2026-05-04 12:58 | -8.33737 | 119.86934 | 2845 ft | 212 kts | 171° |
| 2026-05-04 12:58 | -8.35198 | 119.87132 | 2566 ft | 212 kts | 171° |
| 2026-05-04 12:59 | -8.36657 | 119.87328 | 2277 ft | 212 kts | 171° |
| 2026-05-04 12:59 | -8.38113 | 119.87522 | 1987 ft | 208 kts | 171° |
| 2026-05-04 12:59 | -8.39516 | 119.87709 | 1716 ft | 200 kts | 172° |
| 2026-05-04 12:59 | -8.40846 | 119.87884 | 1474 ft | 187 kts | 171° |
| 2026-05-04 13:00 | -8.42098 | 119.88051 | 1219 ft | 177 kts | 172° |
| 2026-05-04 13:00 | -8.43284 | 119.88211 | 977 ft | 166 kts | 172° |
| 2026-05-04 13:00 | -8.44382 | 119.88360 | 724 ft | 157 kts | 172° |
| 2026-05-04 13:00 | -8.45440 | 119.88508 | 450 ft | 150 kts | 172° |
| 2026-05-04 13:01 | -8.46452 | 119.88640 | 388 ft | 147 kts | 172° |
| 2026-05-04 13:01 | -8.47471 | 119.88771 | 241 ft | 146 kts | 171° |
| 2026-05-04 13:01 | -8.48487 | 119.88893 | 549 ft | 145 kts | 173° |
| 2026-05-04 13:01 | -8.49369 | 119.89033 | 1577 ft | 114 kts | 164° |
| 2026-05-04 13:02 | -8.50131 | 119.89230 | 1927 ft | 128 kts | 159° |
| 2026-05-04 13:02 | -8.51140 | 119.89443 | 2175 ft | 169 kts | 180° |
| 2026-05-04 13:02 | -8.52438 | 119.89009 | 2402 ft | 223 kts | 212° |
| 2026-05-04 13:02 | -8.53575 | 119.87763 | 2890 ft | 263 kts | 244° |
| 2026-05-04 13:03 | -8.53863 | 119.85860 | 3563 ft | 292 kts | 281° |
| 2026-05-04 13:03 | -8.52985 | 119.83955 | 4270 ft | 312 kts | 307° |
| 2026-05-04 13:03 | -8.51761 | 119.82074 | 4935 ft | 330 kts | 299° |
| 2026-05-04 13:03 | -8.50704 | 119.79963 | 5627 ft | 342 kts | 296° |
| 2026-05-04 13:04 | -8.49516 | 119.77843 | 6333 ft | 353 kts | 308° |
| 2026-05-04 13:04 | -8.47710 | 119.76128 | 6888 ft | 368 kts | 326° |
| 2026-05-04 13:04 | -8.45261 | 119.75037 | 6423 ft | 398 kts | 349° |
| 2026-05-04 13:04 | -8.42564 | 119.74708 | 5864 ft | 385 kts | 356° |
| 2026-05-04 13:05 | -8.39937 | 119.74758 | 5302 ft | 372 kts | 9° |
| 2026-05-04 13:05 | -8.37404 | 119.75071 | 4751 ft | 364 kts | 2° |
| 2026-05-04 13:05 | -8.34896 | 119.75040 | 4185 ft | 356 kts | 360° |
| 2026-05-04 13:05 | -8.32444 | 119.74975 | 3635 ft | 350 kts | 359° |
| 2026-05-04 13:06 | -8.30033 | 119.74907 | 3080 ft | 344 kts | 359° |
| 2026-05-04 13:06 | -8.27659 | 119.74844 | 2535 ft | 339 kts | 359° |
| 2026-05-04 13:06 | -8.25347 | 119.74781 | 2373 ft | 324 kts | 359° |
| 2026-05-04 13:06 | -8.23160 | 119.74884 | 2247 ft | 307 kts | 13° |
| 2026-05-04 13:07 | -8.21220 | 119.75611 | 2118 ft | 291 kts | 32° |
| 2026-05-04 13:07 | -8.19698 | 119.76867 | 1995 ft | 277 kts | 51° |
| 2026-05-04 13:07 | -8.18706 | 119.78447 | 1993 ft | 259 kts | 68° |
| 2026-05-04 13:07 | -8.18237 | 119.80139 | 1994 ft | 243 kts | 84° |
| 2026-05-04 13:08 | -8.18238 | 119.81781 | 1996 ft | 227 kts | 98° |
| 2026-05-04 13:08 | -8.18639 | 119.83292 | 2007 ft | 232 kts | 112° |
| 2026-05-04 13:08 | -8.19471 | 119.84749 | 2002 ft | 245 kts | 127° |
| 2026-05-04 13:08 | -8.20701 | 119.85949 | 2002 ft | 248 kts | 143° |
| 2026-05-04 13:09 | -8.22224 | 119.86760 | 2002 ft | 249 kts | 160° |
| 2026-05-04 13:09 | -8.23927 | 119.87115 | 2005 ft | 251 kts | 175° |
| 2026-05-04 13:09 | -8.25671 | 119.86991 | 2006 ft | 253 kts | 187° |
| 2026-05-04 13:09 | -8.27411 | 119.86725 | 2000 ft | 253 kts | 187° |
| 2026-05-04 13:10 | -8.29158 | 119.86503 | 2003 ft | 253 kts | 182° |
| 2026-05-04 13:10 | -8.30912 | 119.86551 | 2004 ft | 252 kts | 172° |
| 2026-05-04 13:10 | -8.32648 | 119.86791 | 2002 ft | 252 kts | 171° |
| 2026-05-04 13:10 | -8.34383 | 119.87027 | 2006 ft | 252 kts | 171° |
| 2026-05-04 13:11 | -8.36110 | 119.87257 | 2004 ft | 246 kts | 172° |
| 2026-05-04 13:11 | -8.37751 | 119.87474 | 2004 ft | 230 kts | 172° |
| 2026-05-04 13:11 | -8.39282 | 119.87675 | 2008 ft | 214 kts | 172° |
| 2026-05-04 13:11 | -8.40729 | 119.87874 | 1740 ft | 213 kts | 169° |
| 2026-05-04 13:12 | -8.42208 | 119.88127 | 1302 ft | 214 kts | 170° |
| 2026-05-04 13:12 | -8.43658 | 119.88319 | 943 ft | 206 kts | 174° |
| 2026-05-04 13:12 | -8.45045 | 119.88437 | 691 ft | 192 kts | 172° |
| 2026-05-04 13:12 | -8.46324 | 119.88632 | 422 ft | 178 kts | 172° |
| 2026-05-04 13:13 | -8.47491 | 119.88772 | 259 ft | 160 kts | 171° |
| 2026-05-04 13:13 | -8.48499 | 119.88905 | 211 ft | 110 kts | 172° |
| 2026-05-04 13:13 | -8.48915 | 119.88972 | 199 ft | 48 kts | 172° |
| 2026-05-04 13:13 | -8.49185 | 119.89006 | 196 ft | 20 kts | 178° |
| 2026-05-04 13:14 | -8.49232 | 119.88908 | 188 ft | 15 kts | 310° |
| 2026-05-04 13:14 | -8.49156 | 119.88888 | 199 ft | 8 kts | 352° |
| 2026-05-04 13:14 | -8.49119 | 119.88883 | 194 ft | 4 kts | 352° |
| 2026-05-04 13:14 | -8.49080 | 119.88878 | 207 ft | 7 kts | 353° |
| 2026-05-04 13:15 | -8.49047 | 119.88874 | 198 ft | 5 kts | 353° |
| 2026-05-04 13:15 | -8.48971 | 119.88865 | 197 ft | 16 kts | 353° |
| 2026-05-04 13:15 | -8.48857 | 119.88847 | 200 ft | 15 kts | 333° |
| 2026-05-04 13:15 | -8.48841 | 119.88806 | 201 ft | 0 kts | 264° |